Time;durP1;ratioP1;P1;durP2;ratioP2;P2;SDS_P1;SDS_P2;PMS_P1;PMS_P2;Temp;Humidity;BMP_temperature;BMP_pressure;BME280_temperature;BME280_humidity;BME280_pressure;Samples;Min_cycle;Max_cycle;Signal;HPM_P1;HPM_P2
2023/09/24 00:00:42;;;;;;;1.98;1.33;;;;;;;;;;4989433;28;20046;-77
2023/09/24 00:03:27;;;;;;;4.65;1.00;;;;;;;;;;4996848;28;20042;-77
2023/09/24 00:06:14;;;;;;;2.03;0.93;;;;;;;;;;4996714;28;20484;-76
2023/09/24 00:09:00;;;;;;;1.42;1.00;;;;;;;;;;4996393;28;20046;-78
2023/09/24 00:11:47;;;;;;;4.03;1.73;;;;;;;;;;5003468;28;20038;-77
2023/09/24 00:14:33;;;;;;;1.98;1.13;;;;;;;;;;4995703;28;20050;-78
2023/09/24 00:17:18;;;;;;;2.30;0.95;;;;;;;;;;5003471;28;20034;-77
2023/09/24 00:20:05;;;;;;;4.75;0.95;;;;;;;;;;4994839;28;20400;-76
2023/09/24 00:22:50;;;;;;;3.67;1.17;;;;;;;;;;4995052;28;20062;-77
2023/09/24 00:25:37;;;;;;;1.70;0.85;;;;;;;;;;4996645;28;20046;-78
2023/09/24 00:28:25;;;;;;;4.95;1.02;;;;;;;;;;4996168;28;20046;-78
2023/09/24 00:31:10;;;;;;;4.38;1.10;;;;;;;;;;4996112;28;20050;-77
2023/09/24 00:33:56;;;;;;;3.15;0.93;;;;;;;;;;4996600;28;20046;-78
2023/09/24 00:36:41;;;;;;;4.63;0.90;;;;;;;;;;5001924;28;20491;-78
2023/09/24 00:39:27;;;;;;;2.85;0.63;;;;;;;;;;5002565;28;20412;-77
2023/09/24 00:42:14;;;;;;;2.88;0.85;;;;;;;;;;4996120;28;20039;-78
2023/09/24 00:44:59;;;;;;;1.67;0.80;;;;;;;;;;4996235;28;20392;-78
2023/09/24 00:47:49;;;;;;;2.25;1.08;;;;;;;;;;5002148;28;20038;-78
2023/09/24 00:50:41;;;;;;;2.13;0.70;;;;;;;;;;4988014;28;20050;-78
2023/09/24 00:53:28;;;;;;;1.38;0.50;;;;;;;;;;4988145;28;20042;-79
2023/09/24 00:56:20;;;;;;;2.90;0.52;;;;;;;;;;5001942;28;20384;-78
2023/09/24 00:59:08;;;;;;;0.45;0.45;;;;;;;;;;4996154;28;20428;-77
2023/09/24 01:01:53;;;;;;;3.45;0.77;;;;;;;;;;5001560;28;20050;-79
2023/09/24 01:04:39;;;;;;;2.00;0.80;;;;;;;;;;4995829;28;20050;-77
2023/09/24 01:07:25;;;;;;;2.00;0.70;;;;;;;;;;5001228;28;20054;-77
2023/09/24 01:10:11;;;;;;;1.13;0.50;;;;;;;;;;5001275;28;20050;-77
2023/09/24 01:13:00;;;;;;;1.50;0.52;;;;;;;;;;5001143;28;20054;-78
2023/09/24 01:15:49;;;;;;;2.97;0.90;;;;;;;;;;4995670;28;20042;-77
2023/09/24 01:18:37;;;;;;;6.55;0.88;;;;;;;;;;5000990;28;20042;-77
2023/09/24 01:21:23;;;;;;;1.95;0.70;;;;;;;;;;5002947;28;20038;-78
2023/09/24 01:24:08;;;;;;;3.33;0.70;;;;;;;;;;4997854;28;20484;-77
2023/09/24 01:26:55;;;;;;;1.25;0.57;;;;;;;;;;4996660;28;20042;-77
2023/09/24 01:29:39;;;;;;;1.23;0.50;;;;;;;;;;5002223;28;20042;-78
2023/09/24 01:32:24;;;;;;;2.55;0.75;;;;;;;;;;5001671;28;20042;-76
2023/09/24 01:35:10;;;;;;;1.85;0.63;;;;;;;;;;4996707;28;20054;-76
2023/09/24 01:38:06;;;;;;;1.33;0.68;;;;;;;;;;5001742;28;20046;-77
2023/09/24 01:40:53;;;;;;;3.33;0.70;;;;;;;;;;4989548;28;20062;-76
2023/09/24 01:43:40;;;;;;;2.38;0.63;;;;;;;;;;4995109;28;20051;-77
2023/09/24 01:46:27;;;;;;;3.83;0.65;;;;;;;;;;5000803;28;20042;-77
2023/09/24 01:49:12;;;;;;;3.97;0.70;;;;;;;;;;5000847;28;20042;-76
2023/09/24 01:51:58;;;;;;;1.77;0.80;;;;;;;;;;4995345;28;20046;-77
2023/09/24 01:54:47;;;;;;;2.05;1.10;;;;;;;;;;5000363;28;20043;-76
2023/09/24 01:57:32;;;;;;;5.20;1.30;;;;;;;;;;4994741;28;20415;-76
2023/09/24 02:00:21;;;;;;;2.25;0.90;;;;;;;;;;5000787;28;20051;-78
2023/09/24 02:03:10;;;;;;;3.38;0.90;;;;;;;;;;4995290;28;20038;-77
2023/09/24 02:05:57;;;;;;;3.85;1.00;;;;;;;;;;4994887;28;20392;-77
2023/09/24 02:08:42;;;;;;;1.05;0.55;;;;;;;;;;5000016;28;20046;-76
2023/09/24 02:11:28;;;;;;;0.85;0.75;;;;;;;;;;5000410;28;20046;-77
2023/09/24 02:14:15;;;;;;;2.30;0.60;;;;;;;;;;4999978;28;20485;-77
2023/09/24 02:17:02;;;;;;;1.40;0.73;;;;;;;;;;5001651;28;20050;-76
2023/09/24 02:19:48;;;;;;;2.15;0.70;;;;;;;;;;4995003;28;20054;-76
2023/09/24 02:22:34;;;;;;;1.20;0.60;;;;;;;;;;4994100;28;20051;-76
2023/09/24 02:25:19;;;;;;;1.02;0.70;;;;;;;;;;5000307;28;20054;-76
2023/09/24 02:28:05;;;;;;;1.75;0.70;;;;;;;;;;4994385;28;20046;-76
2023/09/24 02:30:50;;;;;;;6.97;0.82;;;;;;;;;;4994613;28;20046;-77
2023/09/24 02:33:36;;;;;;;2.35;0.70;;;;;;;;;;5000145;28;20404;-77
2023/09/24 02:36:21;;;;;;;1.38;0.70;;;;;;;;;;4994126;28;20049;-77
2023/09/24 02:39:07;;;;;;;2.22;0.70;;;;;;;;;;4994332;28;20046;-77
2023/09/24 02:41:53;;;;;;;0.65;0.60;;;;;;;;;;4995336;28;20042;-77
2023/09/24 02:44:38;;;;;;;0.55;0.55;;;;;;;;;;4998082;28;20050;-76
2023/09/24 02:47:24;;;;;;;0.80;0.60;;;;;;;;;;4998390;28;20054;-77
2023/09/24 02:50:13;;;;;;;0.43;0.43;;;;;;;;;;4997695;28;20050;-76
2023/09/24 02:53:00;;;;;;;3.38;0.60;;;;;;;;;;4998337;28;20047;-77
2023/09/24 02:55:46;;;;;;;1.50;0.73;;;;;;;;;;5003319;28;20050;-77
2023/09/24 02:58:31;;;;;;;1.67;0.70;;;;;;;;;;5003701;28;20050;-77
2023/09/24 03:01:20;;;;;;;1.10;0.65;;;;;;;;;;5003311;28;20054;-76
2023/09/24 03:04:06;;;;;;;0.70;0.60;;;;;;;;;;5003409;28;20039;-76
2023/09/24 03:06:52;;;;;;;1.35;0.70;;;;;;;;;;5003543;28;20054;-77
2023/09/24 03:09:37;;;;;;;1.52;0.60;;;;;;;;;;5003196;28;20042;-77
2023/09/24 03:12:22;;;;;;;2.10;0.50;;;;;;;;;;5003317;28;20046;-77
2023/09/24 03:15:11;;;;;;;2.35;0.60;;;;;;;;;;5003401;28;20050;-77
2023/09/24 03:17:56;;;;;;;2.35;0.75;;;;;;;;;;4998314;28;20046;-76
2023/09/24 03:20:44;;;;;;;4.85;0.60;;;;;;;;;;4997688;28;20212;-77
2023/09/24 03:23:29;;;;;;;1.60;0.80;;;;;;;;;;4997449;28;20043;-76
2023/09/24 03:26:16;;;;;;;0.85;0.60;;;;;;;;;;5003471;28;20042;-77
2023/09/24 03:29:03;;;;;;;2.10;0.70;;;;;;;;;;4997356;28;20050;-76
2023/09/24 03:31:48;;;;;;;1.90;1.00;;;;;;;;;;4997423;28;20046;-76
2023/09/24 03:34:34;;;;;;;0.77;0.65;;;;;;;;;;4997521;28;20046;-76
2023/09/24 03:37:19;;;;;;;1.00;0.70;;;;;;;;;;5003070;28;20038;-76
2023/09/24 03:40:06;;;;;;;1.23;0.80;;;;;;;;;;5002950;28;20405;-77
2023/09/24 03:42:51;;;;;;;1.65;0.88;;;;;;;;;;4997269;28;20483;-76
2023/09/24 03:45:37;;;;;;;0.73;0.60;;;;;;;;;;5002779;28;20038;-77
2023/09/24 03:48:23;;;;;;;1.52;0.90;;;;;;;;;;4997488;28;20038;-77
2023/09/24 03:51:10;;;;;;;1.10;0.80;;;;;;;;;;5002471;28;20046;-77
2023/09/24 03:53:56;;;;;;;1.95;1.13;;;;;;;;;;5003276;28;20038;-76
2023/09/24 03:56:42;;;;;;;1.98;0.90;;;;;;;;;;5003006;28;20046;-76
2023/09/24 03:59:28;;;;;;;3.80;1.02;;;;;;;;;;5002277;28;20046;-77
2023/09/24 04:02:14;;;;;;;2.95;0.82;;;;;;;;;;5002618;28;20046;-78
2023/09/24 04:04:59;;;;;;;4.75;1.00;;;;;;;;;;4997242;28;20035;-78
2023/09/24 04:07:46;;;;;;;7.13;1.40;;;;;;;;;;5002219;28;20046;-77
2023/09/24 04:10:32;;;;;;;11.75;1.35;;;;;;;;;;5002146;28;20050;-78
2023/09/24 04:13:19;;;;;;;4.60;1.30;;;;;;;;;;5002950;28;20046;-77
2023/09/24 04:16:06;;;;;;;1.35;1.02;;;;;;;;;;4996556;28;20050;-77
2023/09/24 04:18:52;;;;;;;4.90;1.40;;;;;;;;;;4995495;28;20043;-77
2023/09/24 04:21:37;;;;;;;7.45;1.63;;;;;;;;;;5002857;28;20042;-77
2023/09/24 04:24:24;;;;;;;7.80;1.30;;;;;;;;;;4995723;28;20054;-76
2023/09/24 04:27:09;;;;;;;3.40;1.30;;;;;;;;;;4996374;28;20484;-76
2023/09/24 04:29:55;;;;;;;2.08;1.08;;;;;;;;;;4996105;28;20050;-77
2023/09/24 04:32:40;;;;;;;5.80;1.13;;;;;;;;;;4996066;28;20038;-76
2023/09/24 04:35:27;;;;;;;5.97;1.30;;;;;;;;;;4996160;28;20046;-76
2023/09/24 04:38:13;;;;;;;5.25;1.08;;;;;;;;;;4996405;28;20038;-76
2023/09/24 04:40:59;;;;;;;1.15;0.80;;;;;;;;;;4996346;28;20042;-77
2023/09/24 04:43:45;;;;;;;2.50;1.00;;;;;;;;;;5003022;28;20042;-76
2023/09/24 04:46:30;;;;;;;1.98;0.90;;;;;;;;;;5002698;28;20404;-77
2023/09/24 04:49:15;;;;;;;1.30;0.90;;;;;;;;;;4995852;28;20042;-76
2023/09/24 04:52:01;;;;;;;7.13;3.00;;;;;;;;;;4996235;28;20050;-76
2023/09/24 04:54:47;;;;;;;3.00;1.50;;;;;;;;;;4995810;28;20054;-77
2023/09/24 04:57:32;;;;;;;4.35;1.55;;;;;;;;;;5001933;28;20046;-77
2023/09/24 05:00:18;;;;;;;3.97;1.20;;;;;;;;;;4995525;28;20047;-76
2023/09/24 05:03:04;;;;;;;3.55;1.30;;;;;;;;;;4995411;28;20050;-76
2023/09/24 05:05:49;;;;;;;4.10;1.20;;;;;;;;;;5001330;28;20046;-76
2023/09/24 05:08:35;;;;;;;4.53;1.10;;;;;;;;;;4995256;28;20038;-76
2023/09/24 05:11:20;;;;;;;3.78;1.33;;;;;;;;;;4995510;28;20042;-77
2023/09/24 05:14:06;;;;;;;7.22;1.40;;;;;;;;;;5001920;28;20058;-75
2023/09/24 05:16:51;;;;;;;3.97;1.30;;;;;;;;;;5001845;28;20054;-75
2023/09/24 05:19:37;;;;;;;1.70;0.93;;;;;;;;;;4995363;28;20046;-75
2023/09/24 05:22:23;;;;;;;5.60;1.30;;;;;;;;;;4995527;28;20042;-75
2023/09/24 05:25:08;;;;;;;3.42;1.20;;;;;;;;;;4995203;28;20476;-77
2023/09/24 05:27:54;;;;;;;5.50;1.40;;;;;;;;;;4995179;28;20396;-77
2023/09/24 05:30:39;;;;;;;4.72;2.30;;;;;;;;;;4994617;28;20038;-77
2023/09/24 05:33:25;;;;;;;5.70;2.72;;;;;;;;;;4995358;28;20046;-77
2023/09/24 05:36:13;;;;;;;5.25;3.10;;;;;;;;;;4995442;28;20034;-76
2023/09/24 05:39:00;;;;;;;9.15;3.20;;;;;;;;;;4993850;28;20054;-76
2023/09/24 05:41:46;;;;;;;4.00;2.50;;;;;;;;;;4995337;28;20384;-77
2023/09/24 05:44:32;;;;;;;7.28;2.50;;;;;;;;;;4994963;28;20516;-77
2023/09/24 05:47:17;;;;;;;6.47;2.30;;;;;;;;;;5000875;28;20388;-77
2023/09/24 05:50:04;;;;;;;6.40;2.47;;;;;;;;;;4994259;28;20046;-77
2023/09/24 05:52:49;;;;;;;96.18;60.08;;;;;;;;;;4994716;28;20042;-76
2023/09/24 05:55:35;;;;;;;29.00;19.35;;;;;;;;;;4994608;28;20050;-76
2023/09/24 05:58:20;;;;;;;12.95;8.75;;;;;;;;;;5000728;28;20038;-77
2023/09/24 06:01:06;;;;;;;6.90;3.63;;;;;;;;;;5001004;28;20058;-77
2023/09/24 06:03:51;;;;;;;6.88;3.40;;;;;;;;;;4994804;28;20042;-76
2023/09/24 06:06:37;;;;;;;7.35;5.00;;;;;;;;;;4993587;28;20046;-77
2023/09/24 06:09:22;;;;;;;4.30;2.72;;;;;;;;;;4994529;28;20050;-77
2023/09/24 06:12:08;;;;;;;5.25;2.20;;;;;;;;;;4994652;28;20050;-77
2023/09/24 06:14:53;;;;;;;3.13;1.88;;;;;;;;;;4994427;28;20047;-77
2023/09/24 06:17:40;;;;;;;6.68;3.33;;;;;;;;;;5001428;28;20042;-77
2023/09/24 06:20:25;;;;;;;15.85;6.75;;;;;;;;;;5000608;28;20039;-77
2023/09/24 06:23:12;;;;;;;26.25;9.52;;;;;;;;;;4993674;28;20054;-77
2023/09/24 06:25:59;;;;;;;14.00;6.35;;;;;;;;;;4994549;28;20050;-77
2023/09/24 06:28:43;;;;;;;12.73;5.03;;;;;;;;;;4994692;28;20464;-77
2023/09/24 06:31:31;;;;;;;17.90;7.13;;;;;;;;;;4994431;28;20043;-77
2023/09/24 06:34:17;;;;;;;13.55;4.53;;;;;;;;;;5000854;28;20038;-76
2023/09/24 06:37:03;;;;;;;10.55;2.70;;;;;;;;;;5000708;28;20042;-77
2023/09/24 06:39:48;;;;;;;5.05;2.22;;;;;;;;;;4994387;28;20054;-77
2023/09/24 06:42:33;;;;;;;3.28;1.60;;;;;;;;;;4994015;28;20038;-77
2023/09/24 06:45:19;;;;;;;3.42;1.70;;;;;;;;;;4993897;28;20051;-77
2023/09/24 06:48:05;;;;;;;4.38;1.88;;;;;;;;;;4994169;28;20050;-76
2023/09/24 06:50:53;;;;;;;3.75;1.73;;;;;;;;;;4994046;28;20492;-78
2023/09/24 06:53:41;;;;;;;4.22;1.98;;;;;;;;;;4993832;28;20491;-76
2023/09/24 06:56:26;;;;;;;6.63;2.72;;;;;;;;;;4994075;28;20470;-77
2023/09/24 06:59:12;;;;;;;5.20;3.30;;;;;;;;;;4994182;28;20496;-76
2023/09/24 07:01:57;;;;;;;5.35;3.30;;;;;;;;;;4994257;28;20038;-77
2023/09/24 07:04:43;;;;;;;6.82;3.60;;;;;;;;;;4993852;28;20051;-80
2023/09/24 07:07:29;;;;;;;7.93;3.83;;;;;;;;;;4994202;28;20046;-78
2023/09/24 07:10:20;;;;;;;9.05;4.10;;;;;;;;;;4994019;28;20047;-74
2023/09/24 07:13:06;;;;;;;8.27;4.20;;;;;;;;;;4993316;28;20488;-77
2023/09/24 07:15:51;;;;;;;6.95;4.30;;;;;;;;;;4993350;28;20038;-76
2023/09/24 07:18:37;;;;;;;9.73;4.70;;;;;;;;;;4992498;28;20046;-76
2023/09/24 07:21:30;;;;;;;10.05;5.40;;;;;;;;;;4998399;28;20046;-77
2023/09/24 07:24:15;;;;;;;10.68;5.55;;;;;;;;;;4994273;28;20050;-75
2023/09/24 07:27:03;;;;;;;13.18;5.30;;;;;;;;;;4999410;28;20050;-76
2023/09/24 07:29:48;;;;;;;14.07;4.60;;;;;;;;;;4996743;28;20038;-76
2023/09/24 07:32:34;;;;;;;7.00;3.83;;;;;;;;;;4997215;28;20050;-76
2023/09/24 07:35:19;;;;;;;9.40;4.05;;;;;;;;;;4996906;28;20433;-75
2023/09/24 07:38:04;;;;;;;8.32;4.07;;;;;;;;;;4998528;28;20042;-76
2023/09/24 07:40:50;;;;;;;7.85;3.20;;;;;;;;;;4997371;28;20050;-76
2023/09/24 07:43:40;;;;;;;11.10;3.20;;;;;;;;;;4995714;28;20501;-76
2023/09/24 07:46:26;;;;;;;6.25;2.85;;;;;;;;;;4996936;28;20043;-76
2023/09/24 07:49:14;;;;;;;7.80;2.72;;;;;;;;;;5003566;28;20047;-76
2023/09/24 07:51:59;;;;;;;4.55;2.90;;;;;;;;;;5002992;28;20050;-75
2023/09/24 07:54:45;;;;;;;6.80;2.80;;;;;;;;;;5003270;28;20046;-76
2023/09/24 07:57:31;;;;;;;6.85;2.90;;;;;;;;;;5002809;28;20034;-77
2023/09/24 08:00:17;;;;;;;6.97;3.58;;;;;;;;;;4996341;28;20050;-76
2023/09/24 08:03:02;;;;;;;5.88;2.97;;;;;;;;;;4996549;28;20407;-76
2023/09/24 08:05:49;;;;;;;6.15;3.40;;;;;;;;;;4996250;28;20058;-77
2023/09/24 08:08:34;;;;;;;8.30;3.30;;;;;;;;;;4996213;28;20046;-76
2023/09/24 08:11:20;;;;;;;7.15;3.38;;;;;;;;;;4996134;28;20050;-77
2023/09/24 08:14:06;;;;;;;8.00;3.42;;;;;;;;;;4996168;28;20396;-77
2023/09/24 08:16:51;;;;;;;7.30;2.78;;;;;;;;;;4995552;28;20042;-77
2023/09/24 08:19:37;;;;;;;6.38;2.78;;;;;;;;;;4996185;28;20046;-77
2023/09/24 08:22:24;;;;;;;4.28;2.00;;;;;;;;;;4995857;28;20042;-76
2023/09/24 08:25:09;;;;;;;3.85;2.00;;;;;;;;;;4995910;28;20046;-76
2023/09/24 08:27:55;;;;;;;4.78;2.40;;;;;;;;;;5002425;28;20396;-74
2023/09/24 08:30:42;;;;;;;3.97;2.30;;;;;;;;;;5000268;28;20492;-75
2023/09/24 08:33:28;;;;;;;7.20;2.50;;;;;;;;;;5001808;28;20046;-74
2023/09/24 08:36:15;;;;;;;3.65;2.55;;;;;;;;;;4995991;28;20039;-76
2023/09/24 08:39:04;;;;;;;3.78;2.00;;;;;;;;;;4995496;28;20492;-76
2023/09/24 08:41:53;;;;;;;6.68;2.88;;;;;;;;;;4994693;28;20054;-76
2023/09/24 08:44:39;;;;;;;3.60;1.90;;;;;;;;;;5001635;28;20050;-76
2023/09/24 08:47:27;;;;;;;3.63;1.52;;;;;;;;;;5002347;28;20046;-76
2023/09/24 08:50:14;;;;;;;3.15;1.63;;;;;;;;;;5002167;28;20054;-76
2023/09/24 08:53:01;;;;;;;4.13;1.25;;;;;;;;;;4995158;28;20051;-75
2023/09/24 08:55:47;;;;;;;3.60;1.80;;;;;;;;;;4993521;28;20050;-75
2023/09/24 08:58:34;;;;;;;6.85;2.10;;;;;;;;;;5002104;28;20417;-76
2023/09/24 09:01:20;;;;;;;5.93;1.58;;;;;;;;;;4995265;28;20046;-76
2023/09/24 09:04:06;;;;;;;11.20;4.50;;;;;;;;;;5001119;28;20038;-75
2023/09/24 09:06:52;;;;;;;6.88;2.20;;;;;;;;;;5001485;28;20042;-78
2023/09/24 09:09:37;;;;;;;2.42;1.58;;;;;;;;;;4995147;28;20046;-76
2023/09/24 09:12:24;;;;;;;5.50;1.92;;;;;;;;;;4995548;28;20046;-77
2023/09/24 09:15:17;;;;;;;3.83;1.67;;;;;;;;;;4995108;28;20046;-76
2023/09/24 09:18:03;;;;;;;2.05;1.40;;;;;;;;;;4994531;28;20050;-76
2023/09/24 09:20:50;;;;;;;3.33;1.98;;;;;;;;;;4994888;28;20472;-76
2023/09/24 09:23:37;;;;;;;7.78;1.90;;;;;;;;;;4997201;28;20046;-76
2023/09/24 09:26:28;;;;;;;3.55;1.52;;;;;;;;;;5001453;28;20054;-76
2023/09/24 09:29:22;;;;;;;3.10;1.95;;;;;;;;;;4994767;28;20046;-76
2023/09/24 09:32:08;;;;;;;5.80;1.90;;;;;;;;;;4994665;28;20042;-76
2023/09/24 09:34:54;;;;;;;3.25;1.83;;;;;;;;;;5000117;28;20055;-76
2023/09/24 09:37:41;;;;;;;4.80;2.42;;;;;;;;;;4994781;28;20050;-77
2023/09/24 09:40:28;;;;;;;4.30;2.08;;;;;;;;;;5001166;28;20046;-76
2023/09/24 09:43:16;;;;;;;4.82;2.22;;;;;;;;;;4994063;28;20042;-75
2023/09/24 09:46:07;;;;;;;5.25;2.63;;;;;;;;;;5001021;28;20042;-75
2023/09/24 09:49:07;;;;;;;5.05;2.60;;;;;;;;;;4994828;28;20050;-75
2023/09/24 09:52:00;;;;;;;5.22;2.13;;;;;;;;;;4993798;28;20050;-74
2023/09/24 09:54:50;;;;;;;4.40;2.38;;;;;;;;;;4994475;28;20054;-74
2023/09/24 09:57:35;;;;;;;2.78;1.70;;;;;;;;;;4994184;28;20046;-75
2023/09/24 10:00:21;;;;;;;5.45;2.83;;;;;;;;;;4994387;28;20046;-75
2023/09/24 10:03:09;;;;;;;4.25;1.73;;;;;;;;;;4994047;28;20050;-76
2023/09/24 10:05:57;;;;;;;6.38;2.60;;;;;;;;;;4993857;28;20046;-76
2023/09/24 10:08:45;;;;;;;4.45;1.88;;;;;;;;;;4994072;28;20403;-75
2023/09/24 10:11:33;;;;;;;5.60;3.30;;;;;;;;;;5000259;28;20042;-76
2023/09/24 10:14:36;;;;;;;7.35;3.95;;;;;;;;;;4993670;28;20050;-76
2023/09/24 10:17:26;;;;;;;6.20;1.70;;;;;;;;;;4993913;28;20042;-76
2023/09/24 10:20:18;;;;;;;7.15;2.42;;;;;;;;;;4994341;28;20050;-76
2023/09/24 10:23:30;;;;;;;6.25;3.42;;;;;;;;;;4994216;28;20472;-76
2023/09/24 10:26:49;;;;;;;3.75;1.70;;;;;;;;;;4994400;28;20042;-76
2023/09/24 10:29:51;;;;;;;5.88;2.45;;;;;;;;;;5000376;28;20050;-76
2023/09/24 10:32:43;;;;;;;3.83;2.03;;;;;;;;;;4993866;28;20042;-75
2023/09/24 10:35:30;;;;;;;1.52;1.00;;;;;;;;;;5000783;28;20050;-76
2023/09/24 10:38:15;;;;;;;2.10;1.23;;;;;;;;;;5000759;28;20395;-74
2023/09/24 10:41:07;;;;;;;2.58;1.40;;;;;;;;;;4993733;28;20054;-75
2023/09/24 10:44:21;;;;;;;5.30;2.40;;;;;;;;;;4994129;28;20051;-76
2023/09/24 10:47:38;;;;;;;3.53;1.52;;;;;;;;;;4994197;28;20054;-76
2023/09/24 10:50:23;;;;;;;3.60;1.90;;;;;;;;;;4993868;28;20050;-75
2023/09/24 10:53:09;;;;;;;5.32;1.52;;;;;;;;;;4993656;28;20046;-75
2023/09/24 10:55:56;;;;;;;2.35;1.77;;;;;;;;;;4993392;28;20046;-76
2023/09/24 10:58:48;;;;;;;5.03;1.40;;;;;;;;;;4999014;28;20034;-76
2023/09/24 11:01:33;;;;;;;1.95;1.30;;;;;;;;;;4993638;28;20408;-75
2023/09/24 11:04:26;;;;;;;2.38;1.42;;;;;;;;;;4996775;28;20050;-75
2023/09/24 11:07:12;;;;;;;4.88;1.65;;;;;;;;;;5004070;28;20054;-75
2023/09/24 11:09:57;;;;;;;6.47;1.80;;;;;;;;;;5003396;28;20051;-75
2023/09/24 11:12:53;;;;;;;6.28;2.17;;;;;;;;;;4997301;28;20395;-74
2023/09/24 11:15:40;;;;;;;3.85;1.83;;;;;;;;;;4997334;28;20038;-76
2023/09/24 11:18:28;;;;;;;4.07;1.85;;;;;;;;;;5003298;28;20038;-77
2023/09/24 11:21:13;;;;;;;7.40;2.40;;;;;;;;;;4996662;28;20047;-75
2023/09/24 11:23:59;;;;;;;3.33;1.92;;;;;;;;;;4997887;28;20054;-75
2023/09/24 11:26:45;;;;;;;4.53;1.70;;;;;;;;;;4988972;28;20046;-76
2023/09/24 11:29:31;;;;;;;2.42;1.70;;;;;;;;;;5004062;28;20038;-76
2023/09/24 11:32:27;;;;;;;5.75;2.22;;;;;;;;;;4997663;28;20042;-75
2023/09/24 11:35:14;;;;;;;6.10;1.88;;;;;;;;;;4997487;28;20058;-75
2023/09/24 11:38:01;;;;;;;3.58;1.80;;;;;;;;;;4997094;28;20050;-75
2023/09/24 11:40:46;;;;;;;2.92;1.67;;;;;;;;;;4997305;28;20046;-74
2023/09/24 11:43:32;;;;;;;3.17;1.90;;;;;;;;;;4997084;28;20042;-76
2023/09/24 11:46:21;;;;;;;4.93;2.45;;;;;;;;;;4997024;28;20046;-75
2023/09/24 11:49:08;;;;;;;3.88;1.85;;;;;;;;;;5003438;28;20046;-75
2023/09/24 11:51:54;;;;;;;3.13;1.45;;;;;;;;;;4996528;28;20046;-75
2023/09/24 11:54:40;;;;;;;3.42;1.73;;;;;;;;;;4996645;28;20046;-75
2023/09/24 11:57:26;;;;;;;2.78;1.55;;;;;;;;;;4996784;28;20047;-76
2023/09/24 12:00:12;;;;;;;5.53;3.00;;;;;;;;;;4996715;28;20054;-76
2023/09/24 12:02:59;;;;;;;3.95;1.85;;;;;;;;;;5001903;28;20046;-75
2023/09/24 12:05:45;;;;;;;3.40;1.58;;;;;;;;;;5003177;28;20484;-76
2023/09/24 12:08:30;;;;;;;6.15;1.98;;;;;;;;;;4995371;28;20401;-75
2023/09/24 12:11:16;;;;;;;4.30;1.67;;;;;;;;;;4996258;28;20050;-75
2023/09/24 12:14:02;;;;;;;3.50;2.10;;;;;;;;;;4996420;28;20042;-75
2023/09/24 12:16:48;;;;;;;7.85;1.75;;;;;;;;;;4996209;28;20046;-75
2023/09/24 12:19:34;;;;;;;2.55;1.70;;;;;;;;;;4995448;28;20050;-76
2023/09/24 12:22:21;;;;;;;7.97;3.83;;;;;;;;;;4996027;28;20054;-76
2023/09/24 12:25:07;;;;;;;9.95;3.83;;;;;;;;;;4996061;28;20046;-76
2023/09/24 12:27:54;;;;;;;4.45;2.60;;;;;;;;;;5002422;28;20046;-76
2023/09/24 12:30:39;;;;;;;4.43;2.58;;;;;;;;;;5001446;28;20038;-76
2023/09/24 12:33:25;;;;;;;5.88;2.20;;;;;;;;;;5002222;28;20050;-77
2023/09/24 12:36:10;;;;;;;4.68;2.85;;;;;;;;;;4995683;28;20487;-77
2023/09/24 12:38:56;;;;;;;5.05;2.42;;;;;;;;;;4995087;28;20083;-75
2023/09/24 12:41:41;;;;;;;6.03;2.08;;;;;;;;;;5002043;28;20054;-76
2023/09/24 12:44:27;;;;;;;4.93;2.00;;;;;;;;;;5001241;28;20046;-75
2023/09/24 12:47:12;;;;;;;5.15;2.03;;;;;;;;;;4995234;28;20047;-75
2023/09/24 12:49:58;;;;;;;4.93;1.67;;;;;;;;;;5000646;28;20042;-76
2023/09/24 12:52:45;;;;;;;3.78;2.22;;;;;;;;;;5001818;28;20042;-76
2023/09/24 12:55:30;;;;;;;5.57;2.35;;;;;;;;;;4995371;28;20046;-77
2023/09/24 12:58:16;;;;;;;2.85;1.77;;;;;;;;;;4995010;28;20046;-75
2023/09/24 13:01:02;;;;;;;4.13;2.05;;;;;;;;;;4995075;28;20047;-76
2023/09/24 13:03:47;;;;;;;4.65;2.13;;;;;;;;;;5001848;28;20054;-75
2023/09/24 13:06:33;;;;;;;3.30;1.95;;;;;;;;;;4994998;28;20050;-76
2023/09/24 13:09:20;;;;;;;6.35;1.90;;;;;;;;;;4994607;28;20046;-75
2023/09/24 13:12:05;;;;;;;4.35;1.80;;;;;;;;;;5000482;28;20399;-77
2023/09/24 13:14:51;;;;;;;4.32;2.00;;;;;;;;;;5001693;28;20038;-75
2023/09/24 13:17:36;;;;;;;2.83;1.85;;;;;;;;;;4995504;28;20046;-76
2023/09/24 13:20:22;;;;;;;3.90;1.55;;;;;;;;;;4994990;28;20046;-76
2023/09/24 13:23:07;;;;;;;3.97;1.63;;;;;;;;;;4995085;28;20047;-76
2023/09/24 13:25:52;;;;;;;2.05;1.58;;;;;;;;;;5000567;28;20042;-75
2023/09/24 13:28:37;;;;;;;4.22;1.58;;;;;;;;;;4993706;28;20042;-76
2023/09/24 13:31:24;;;;;;;2.30;1.38;;;;;;;;;;4994857;28;20050;-76
2023/09/24 13:34:11;;;;;;;2.78;1.20;;;;;;;;;;4994850;28;20050;-76
2023/09/24 13:36:56;;;;;;;2.78;1.30;;;;;;;;;;4995241;28;20472;-76
2023/09/24 13:39:42;;;;;;;4.65;1.20;;;;;;;;;;4994787;28;20396;-77
2023/09/24 13:42:27;;;;;;;4.45;1.33;;;;;;;;;;4995148;28;20046;-78
2023/09/24 13:45:14;;;;;;;3.70;1.20;;;;;;;;;;4993947;28;20058;-77
2023/09/24 13:48:01;;;;;;;2.85;1.67;;;;;;;;;;4999859;28;20399;-75
2023/09/24 13:50:50;;;;;;;2.13;1.30;;;;;;;;;;4994578;28;20046;-76
2023/09/24 13:53:34;;;;;;;2.75;1.30;;;;;;;;;;5000082;28;20050;-75
2023/09/24 13:56:20;;;;;;;4.10;1.95;;;;;;;;;;5000473;28;20038;-76
2023/09/24 13:59:06;;;;;;;2.88;1.58;;;;;;;;;;4994212;28;20477;-75
2023/09/24 14:01:52;;;;;;;2.03;1.25;;;;;;;;;;4994161;28;20392;-76
2023/09/24 14:04:37;;;;;;;4.03;1.40;;;;;;;;;;4994322;28;20054;-75
2023/09/24 14:07:24;;;;;;;3.00;1.20;;;;;;;;;;4994353;28;20054;-74
2023/09/24 14:13:20;;;;;;;2.45;1.42;;;;;;;;;;4995107;28;20503;-74
2023/09/24 14:16:11;;;;;;;4.82;1.45;;;;;;;;;;5001430;28;20050;-76
2023/09/24 14:18:57;;;;;;;6.03;2.03;;;;;;;;;;5000844;28;20046;-74
2023/09/24 14:29:11;;;;;;;5.70;1.40;;;;;;;;;;4991657;28;20057;-72
2023/09/24 14:31:56;;;;;;;3.17;1.60;;;;;;;;;;4993815;28;20396;-73
2023/09/24 14:34:43;;;;;;;3.35;1.70;;;;;;;;;;4994012;28;20038;-72
2023/09/24 14:37:28;;;;;;;3.05;1.80;;;;;;;;;;4999900;28;20034;-74
2023/09/24 14:40:14;;;;;;;1.90;1.45;;;;;;;;;;5017153;28;20050;-74
2023/09/24 14:43:00;;;;;;;4.03;1.40;;;;;;;;;;4998306;28;20047;-73
2023/09/24 14:45:45;;;;;;;3.50;1.65;;;;;;;;;;4998063;28;20050;-73
2023/09/24 14:48:31;;;;;;;5.35;2.15;;;;;;;;;;4997869;28;20046;-74
2023/09/24 14:51:17;;;;;;;2.70;1.70;;;;;;;;;;4996964;28;20472;-73
2023/09/24 14:54:04;;;;;;;3.47;1.83;;;;;;;;;;4997811;28;20046;-74
2023/09/24 14:56:52;;;;;;;2.42;1.70;;;;;;;;;;4997833;28;20042;-75
2023/09/24 14:59:37;;;;;;;4.63;1.65;;;;;;;;;;4998332;28;20050;-75
2023/09/24 15:02:24;;;;;;;2.95;2.10;;;;;;;;;;4997640;28;20058;-74
2023/09/24 15:05:10;;;;;;;2.67;1.73;;;;;;;;;;4997924;28;20050;-74
2023/09/24 15:07:55;;;;;;;3.58;2.17;;;;;;;;;;4997631;28;20411;-74
2023/09/24 15:10:42;;;;;;;4.70;2.70;;;;;;;;;;4997435;28;20042;-74
2023/09/24 15:13:31;;;;;;;3.90;2.70;;;;;;;;;;5003422;28;20042;-73
2023/09/24 15:16:20;;;;;;;7.32;4.10;;;;;;;;;;4997790;28;20054;-74
2023/09/24 15:19:06;;;;;;;7.07;4.20;;;;;;;;;;4997542;28;20046;-73
2023/09/24 15:21:52;;;;;;;4.78;3.28;;;;;;;;;;5003884;28;20046;-73
2023/09/24 15:24:38;;;;;;;6.47;3.15;;;;;;;;;;4997156;28;20059;-73
2023/09/24 15:27:24;;;;;;;3.83;2.70;;;;;;;;;;4997018;28;20128;-74
2023/09/24 15:30:10;;;;;;;3.55;2.20;;;;;;;;;;4997035;28;20038;-74
2023/09/24 15:32:57;;;;;;;4.50;1.92;;;;;;;;;;4996997;28;20484;-74
2023/09/24 15:35:43;;;;;;;6.88;2.40;;;;;;;;;;4996075;28;20042;-73
2023/09/24 15:38:30;;;;;;;6.00;2.90;;;;;;;;;;4995423;28;20469;-74
2023/09/24 15:41:16;;;;;;;4.40;2.78;;;;;;;;;;4996280;28;20054;-73
2023/09/24 15:44:02;;;;;;;8.75;3.03;;;;;;;;;;4996208;28;20038;-75
2023/09/24 15:46:47;;;;;;;6.85;3.15;;;;;;;;;;5003481;28;20046;-74
2023/09/24 15:49:34;;;;;;;7.85;3.67;;;;;;;;;;4996502;28;20046;-74
2023/09/24 15:52:19;;;;;;;6.40;3.10;;;;;;;;;;4994713;28;20050;-74
2023/09/24 15:55:06;;;;;;;4.85;3.00;;;;;;;;;;4996079;28;20042;-75
2023/09/24 15:57:51;;;;;;;3.60;2.60;;;;;;;;;;4996386;28;20046;-74
2023/09/24 16:00:37;;;;;;;3.60;2.70;;;;;;;;;;5003016;28;20046;-73
2023/09/24 16:03:24;;;;;;;5.18;3.20;;;;;;;;;;4996553;28;20050;-73
2023/09/24 16:06:09;;;;;;;16.15;2.95;;;;;;;;;;5002918;28;20046;-73
2023/09/24 16:08:54;;;;;;;4.75;3.50;;;;;;;;;;4996547;28;20042;-73
2023/09/24 16:11:40;;;;;;;5.05;3.20;;;;;;;;;;4993657;28;20054;-74
2023/09/24 16:14:25;;;;;;;5.25;3.15;;;;;;;;;;5002928;28;20038;-74
2023/09/24 16:17:11;;;;;;;6.38;3.33;;;;;;;;;;4995384;28;20058;-76
2023/09/24 16:19:56;;;;;;;4.22;3.30;;;;;;;;;;4996087;28;20039;-75
2023/09/24 16:22:45;;;;;;;6.28;3.55;;;;;;;;;;4996360;28;20427;-77
2023/09/24 16:25:29;;;;;;;10.05;5.75;;;;;;;;;;4995513;28;20043;-76
2023/09/24 16:28:14;;;;;;;10.20;5.53;;;;;;;;;;4995590;28;20042;-75
2023/09/24 16:31:06;;;;;;;9.93;5.75;;;;;;;;;;4996235;28;20050;-75
2023/09/24 16:33:51;;;;;;;8.65;5.35;;;;;;;;;;4995865;28;20050;-75
2023/09/24 16:36:37;;;;;;;7.47;4.15;;;;;;;;;;4995615;28;20050;-75
2023/09/24 16:39:23;;;;;;;10.35;5.40;;;;;;;;;;5001362;28;20687;-75
2023/09/24 16:42:09;;;;;;;10.82;5.63;;;;;;;;;;4995670;28;20046;-74
2023/09/24 16:44:57;;;;;;;9.73;4.72;;;;;;;;;;4996117;28;20481;-76
2023/09/24 16:47:45;;;;;;;6.57;3.60;;;;;;;;;;4995910;28;20392;-79
2023/09/24 16:50:35;;;;;;;17.00;4.40;;;;;;;;;;4994770;28;20046;-79